Time;durP1;ratioP1;P1;durP2;ratioP2;P2;SDS_P1;SDS_P2;PMS_P1;PMS_P2;Temp;Humidity;BMP_temperature;BMP_pressure;BME280_temperature;BME280_humidity;BME280_pressure;Samples;Min_cycle;Max_cycle;Signal;HPM_P1;HPM_P2
2022/01/07 00:02:02;;;;;;;9.38;6.15;;;3.60;64.60;;;;;;5071228;28;20036;-69
2022/01/07 00:04:31;;;;;;;9.25;5.97;;;3.60;64.60;;;;;;5069458;28;20025;-69
2022/01/07 00:06:57;;;;;;;9.23;5.80;;;3.60;64.70;;;;;;5071909;28;20051;-69
2022/01/07 00:09:24;;;;;;;8.93;5.22;;;3.60;64.50;;;;;;5070159;28;20033;-70
2022/01/07 00:11:50;;;;;;;9.18;5.38;;;3.60;64.60;;;;;;5072195;28;20079;-68
2022/01/07 00:14:17;;;;;;;10.25;6.32;;;3.60;64.50;;;;;;5071362;28;20111;-68
2022/01/07 00:16:43;;;;;;;9.90;5.43;;;3.60;64.50;;;;;;5070966;28;20480;-70
2022/01/07 00:19:09;;;;;;;9.88;5.97;;;3.60;64.40;;;;;;5068640;28;20163;-64
2022/01/07 00:21:36;;;;;;;14.02;6.03;;;3.60;64.40;;;;;;5071749;28;20099;-69
2022/01/07 00:24:01;;;;;;;10.38;5.93;;;3.50;64.50;;;;;;5071721;28;20070;-68
2022/01/07 00:26:30;;;;;;;10.25;5.80;;;3.50;64.80;;;;;;5070198;28;20373;-68
2022/01/07 00:28:56;;;;;;;9.38;5.38;;;3.50;64.70;;;;;;5069880;28;20033;-69
2022/01/07 00:31:21;;;;;;;10.07;5.80;;;3.50;64.50;;;;;;5067309;28;20035;-68
2022/01/07 00:33:47;;;;;;;10.43;5.68;;;3.50;64.50;;;;;;5068760;28;20036;-68
2022/01/07 00:36:13;;;;;;;9.60;5.70;;;3.60;64.40;;;;;;5068804;28;20046;-67
2022/01/07 00:38:39;;;;;;;8.77;5.57;;;3.60;64.30;;;;;;5069525;28;20508;-67
2022/01/07 00:41:05;;;;;;;8.38;5.25;;;3.60;64.30;;;;;;5069875;28;20033;-68
2022/01/07 00:43:31;;;;;;;9.15;5.63;;;3.60;64.20;;;;;;5069503;28;20036;-69
2022/01/07 00:45:56;;;;;;;9.18;5.40;;;3.60;64.40;;;;;;5070055;28;20043;-69
2022/01/07 00:48:22;;;;;;;11.38;5.20;;;3.60;64.40;;;;;;5068771;28;20029;-70
2022/01/07 00:50:49;;;;;;;9.98;5.65;;;3.60;64.50;;;;;;5071200;28;20126;-68
2022/01/07 00:53:15;;;;;;;7.78;4.75;;;3.60;64.60;;;;;;5071007;28;20032;-68
2022/01/07 00:55:41;;;;;;;10.57;5.53;;;3.60;64.70;;;;;;5070132;28;20020;-68
2022/01/07 00:58:07;;;;;;;9.10;5.50;;;3.60;64.70;;;;;;5070811;28;20032;-69
2022/01/07 01:00:33;;;;;;;13.40;6.65;;;3.60;65.20;;;;;;5070272;28;20081;-69
2022/01/07 01:02:59;;;;;;;12.23;6.65;;;3.60;65.50;;;;;;5071293;28;20491;-69
2022/01/07 01:05:27;;;;;;;14.40;7.18;;;3.60;65.90;;;;;;5070472;28;20035;-68
2022/01/07 01:07:53;;;;;;;10.60;6.60;;;3.50;66.20;;;;;;5070178;28;20020;-68
2022/01/07 01:10:22;;;;;;;9.38;6.57;;;3.50;66.40;;;;;;5069136;28;20044;-67
2022/01/07 01:12:49;;;;;;;11.27;7.18;;;3.40;66.50;;;;;;5068623;28;20048;-68
2022/01/07 01:15:20;;;;;;;10.48;6.22;;;3.40;66.90;;;;;;5069313;28;20099;-68
2022/01/07 01:17:46;;;;;;;11.98;7.03;;;3.30;67.40;;;;;;5069987;28;20456;-68
2022/01/07 01:20:14;;;;;;;10.07;7.10;;;3.20;67.80;;;;;;5069329;28;20059;-65
2022/01/07 01:22:40;;;;;;;11.18;7.15;;;3.20;68.20;;;;;;5070561;28;20035;-69
2022/01/07 01:25:07;;;;;;;13.27;7.18;;;3.20;68.30;;;;;;5071027;28;20020;-69
2022/01/07 01:27:33;;;;;;;8.93;6.78;;;3.20;69.10;;;;;;5068939;28;20028;-67
2022/01/07 01:30:01;;;;;;;9.43;5.88;;;3.10;69.40;;;;;;5070848;28;20052;-68
2022/01/07 01:32:31;;;;;;;12.27;6.85;;;3.10;69.30;;;;;;5068526;28;20362;-68
2022/01/07 01:34:56;;;;;;;10.30;6.43;;;3.10;69.20;;;;;;5070291;28;20021;-68
2022/01/07 01:37:22;;;;;;;8.52;5.72;;;3.10;69.20;;;;;;5069822;28;20036;-67
2022/01/07 01:39:48;;;;;;;7.63;5.53;;;3.10;69.40;;;;;;5069965;28;20028;-70
2022/01/07 01:42:14;;;;;;;10.02;6.05;;;3.10;69.30;;;;;;5070414;28;20037;-64
2022/01/07 01:44:40;;;;;;;8.65;6.00;;;3.20;69.10;;;;;;5075124;28;20055;-69
2022/01/07 01:47:06;;;;;;;8.00;5.93;;;3.20;69.10;;;;;;5073822;28;20035;-66
2022/01/07 01:49:31;;;;;;;10.25;6.38;;;3.20;69.20;;;;;;5054821;28;20036;-68
2022/01/07 01:52:00;;;;;;;10.70;6.55;;;3.20;69.50;;;;;;5075136;28;20024;-69
2022/01/07 01:54:26;;;;;;;14.85;9.20;;;3.20;69.80;;;;;;5074344;28;20020;-70
2022/01/07 01:56:52;;;;;;;17.67;9.43;;;3.20;70.00;;;;;;5074420;28;20035;-69
2022/01/07 01:59:29;;;;;;;16.90;9.57;;;3.10;70.20;;;;;;5071311;28;20033;-70
2022/01/07 02:01:55;;;;;;;11.80;7.22;;;3.10;69.80;;;;;;5073422;28;20028;-70
2022/01/07 02:04:22;;;;;;;10.82;5.60;;;3.20;69.80;;;;;;5073397;28;20575;-68
2022/01/07 02:06:48;;;;;;;10.80;6.57;;;3.20;69.60;;;;;;5073082;28;20070;-67
2022/01/07 02:09:14;;;;;;;12.50;7.05;;;3.20;69.40;;;;;;5073336;28;20146;-63
2022/01/07 02:11:40;;;;;;;17.58;10.40;;;3.20;69.00;;;;;;5073405;28;20070;-69
2022/01/07 02:14:07;;;;;;;11.65;7.15;;;3.20;69.00;;;;;;5071761;28;20166;-71
2022/01/07 02:16:32;;;;;;;14.15;7.03;;;3.20;68.80;;;;;;5071859;28;20103;-65
2022/01/07 02:18:58;;;;;;;11.02;6.38;;;3.20;69.00;;;;;;5072774;28;20115;-68
2022/01/07 02:21:26;;;;;;;16.90;8.90;;;3.10;69.20;;;;;;5072391;28;20441;-70
2022/01/07 02:23:53;;;;;;;14.18;7.40;;;3.00;69.60;;;;;;5072001;28;20035;-68
2022/01/07 02:26:20;;;;;;;13.43;6.80;;;3.00;69.30;;;;;;5054802;28;20107;-68
2022/01/07 02:28:49;;;;;;;12.93;7.40;;;3.00;69.10;;;;;;5073790;28;20030;-69
2022/01/07 02:31:15;;;;;;;10.30;6.20;;;3.00;68.80;;;;;;5071282;28;20480;-65
2022/01/07 02:33:41;;;;;;;8.93;5.40;;;3.00;68.50;;;;;;5072350;28;20068;-68
2022/01/07 02:36:11;;;;;;;8.63;4.80;;;2.90;68.30;;;;;;5070542;28;20063;-69
2022/01/07 02:38:47;;;;;;;6.80;4.28;;;2.90;68.10;;;;;;5070840;28;20024;-69
2022/01/07 02:41:13;;;;;;;9.32;5.15;;;2.90;68.10;;;;;;5073468;28;20025;-69
2022/01/07 02:43:38;;;;;;;9.38;4.30;;;2.90;68.00;;;;;;5072839;28;20028;-69
2022/01/07 02:46:04;;;;;;;7.30;4.18;;;2.80;67.90;;;;;;5072898;28;20024;-69
2022/01/07 02:48:30;;;;;;;13.43;5.82;;;2.80;67.90;;;;;;5072197;28;20448;-69
2022/01/07 02:50:56;;;;;;;21.27;9.32;;;2.80;68.10;;;;;;5072454;28;20025;-69
2022/01/07 02:53:22;;;;;;;25.45;9.77;;;2.70;68.10;;;;;;5072065;28;20048;-69
2022/01/07 02:55:48;;;;;;;11.68;6.20;;;2.70;68.20;;;;;;5072114;28;20033;-68
2022/01/07 02:58:15;;;;;;;26.52;11.35;;;2.60;68.10;;;;;;5072780;28;20028;-64
2022/01/07 03:00:41;;;;;;;28.92;10.65;;;2.60;68.10;;;;;;5072885;28;20032;-69
2022/01/07 03:03:08;;;;;;;22.75;9.07;;;2.60;68.30;;;;;;5072517;28;20040;-68
2022/01/07 03:05:34;;;;;;;26.27;9.32;;;2.60;68.30;;;;;;5072334;28;20068;-70
2022/01/07 03:08:00;;;;;;;29.67;11.02;;;2.60;68.30;;;;;;5072871;28;20111;-67
2022/01/07 03:10:31;;;;;;;24.90;8.25;;;2.60;68.30;;;;;;5071016;28;20108;-69
2022/01/07 03:12:59;;;;;;;26.17;8.57;;;2.60;68.10;;;;;;5074121;28;20056;-68
2022/01/07 03:15:24;;;;;;;24.95;8.13;;;2.60;68.10;;;;;;5072447;28;20024;-69
2022/01/07 03:17:51;;;;;;;39.22;13.38;;;2.60;68.10;;;;;;5072139;28;20029;-69
2022/01/07 03:20:19;;;;;;;25.52;9.65;;;2.70;68.10;;;;;;5072784;28;20531;-64
2022/01/07 03:22:46;;;;;;;34.65;11.52;;;2.70;68.10;;;;;;5072774;28;20025;-69
2022/01/07 03:25:13;;;;;;;27.90;8.73;;;2.70;68.20;;;;;;5072377;28;20037;-69
2022/01/07 03:27:38;;;;;;;25.48;8.68;;;2.70;68.20;;;;;;5072894;28;20320;-69
2022/01/07 03:30:07;;;;;;;16.73;7.25;;;2.60;68.00;;;;;;5073382;28;20430;-70
2022/01/07 03:32:35;;;;;;;13.73;6.07;;;2.70;68.10;;;;;;5072409;28;20435;-70
2022/01/07 03:35:01;;;;;;;18.33;7.60;;;2.70;68.00;;;;;;5073169;28;20024;-69
2022/01/07 03:37:26;;;;;;;9.38;4.93;;;2.70;68.00;;;;;;5071471;28;20028;-69
2022/01/07 03:39:52;;;;;;;13.57;6.40;;;2.70;68.00;;;;;;5073026;28;20454;-68
2022/01/07 03:42:18;;;;;;;42.83;14.85;;;2.70;68.00;;;;;;5072494;28;20036;-64
2022/01/07 03:44:44;;;;;;;11.38;5.75;;;2.70;68.10;;;;;;5072647;28;20028;-69
2022/01/07 03:47:13;;;;;;;20.75;7.90;;;2.60;68.10;;;;;;5105348;28;20074;-70
2022/01/07 03:49:39;;;;;;;38.80;13.60;;;2.60;68.10;;;;;;5072176;28;20021;-69
2022/01/07 03:52:05;;;;;;;30.67;10.75;;;2.50;68.40;;;;;;5070951;28;20370;-69
2022/01/07 03:54:32;;;;;;;25.30;10.73;;;2.50;68.50;;;;;;5070620;28;20039;-68
2022/01/07 03:56:58;;;;;;;24.73;9.20;;;2.40;68.50;;;;;;5070650;28;20032;-66
2022/01/07 03:59:26;;;;;;;27.17;10.45;;;2.40;68.50;;;;;;5071517;28;20032;-68
2022/01/07 04:01:51;;;;;;;28.77;9.68;;;2.40;68.50;;;;;;5054651;28;20059;-70
2022/01/07 04:04:17;;;;;;;26.77;10.30;;;2.40;68.50;;;;;;5071880;28;20067;-65
2022/01/07 04:06:43;;;;;;;23.25;8.77;;;2.50;68.50;;;;;;5071542;28;20086;-69
2022/01/07 04:09:08;;;;;;;8.15;5.07;;;2.50;68.40;;;;;;5072263;28;20028;-70
2022/01/07 04:11:34;;;;;;;10.35;4.70;;;2.50;68.40;;;;;;5068936;28;20072;-69
2022/01/07 04:14:00;;;;;;;11.35;5.15;;;2.50;68.40;;;;;;5072584;28;20451;-69
2022/01/07 04:16:25;;;;;;;6.85;4.55;;;2.50;68.30;;;;;;5071743;28;20028;-69
2022/01/07 04:18:51;;;;;;;7.40;5.05;;;2.50;68.20;;;;;;5072133;28;20032;-69
2022/01/07 04:21:17;;;;;;;9.82;5.00;;;2.50;68.30;;;;;;5070111;28;20385;-68
2022/01/07 04:23:44;;;;;;;7.90;5.57;;;2.50;68.40;;;;;;5070046;28;20041;-68
2022/01/07 04:26:09;;;;;;;9.10;4.97;;;2.50;68.30;;;;;;5070295;28;20028;-68
2022/01/07 04:28:35;;;;;;;10.73;5.43;;;2.50;68.20;;;;;;5069748;28;20032;-69
2022/01/07 04:31:01;;;;;;;20.27;9.10;;;2.50;68.30;;;;;;5071399;28;20107;-69
2022/01/07 04:33:30;;;;;;;44.45;15.43;;;2.50;68.40;;;;;;5065001;28;20028;-68
2022/01/07 04:35:56;;;;;;;9.60;5.40;;;2.50;68.50;;;;;;5068936;28;20028;-69
2022/01/07 04:38:22;;;;;;;11.00;5.20;;;2.40;68.60;;;;;;5071473;28;20465;-65
2022/01/07 04:41:07;;;;;;;15.07;6.95;;;2.40;68.80;;;;;;5071436;28;20025;-69
2022/01/07 04:43:34;;;;;;;15.63;6.45;;;2.30;68.80;;;;;;5070855;28;20032;-68
2022/01/07 04:45:59;;;;;;;11.52;5.57;;;2.30;68.80;;;;;;5071863;28;20044;-69
2022/01/07 04:48:25;;;;;;;9.88;5.20;;;2.40;68.80;;;;;;5070074;28;20461;-65
2022/01/07 04:50:51;;;;;;;13.23;5.45;;;2.30;68.70;;;;;;5071152;28;20421;-68
2022/01/07 04:53:16;;;;;;;9.50;5.50;;;2.40;68.80;;;;;;5070877;28;20028;-68
2022/01/07 04:55:48;;;;;;;11.00;5.65;;;2.40;68.80;;;;;;5070299;28;20092;-68
2022/01/07 04:58:15;;;;;;;13.88;7.25;;;2.30;68.90;;;;;;5071424;28;20056;-69
2022/01/07 05:00:42;;;;;;;27.15;10.52;;;2.20;69.80;;;;;;5069440;28;20040;-68
2022/01/07 05:03:09;;;;;;;15.85;7.25;;;2.10;69.10;;;;;;5070407;28;20056;-67
2022/01/07 05:05:35;;;;;;;14.73;6.47;;;2.10;69.30;;;;;;5070335;28;20023;-69
2022/01/07 05:08:02;;;;;;;15.30;6.95;;;2.10;69.20;;;;;;5069864;28;20048;-68
2022/01/07 05:10:29;;;;;;;11.43;5.78;;;2.00;69.30;;;;;;5069711;28;20029;-68
2022/01/07 05:12:54;;;;;;;43.50;17.05;;;2.00;69.20;;;;;;5070250;28;20055;-68
2022/01/07 05:15:22;;;;;;;16.67;7.40;;;2.00;69.20;;;;;;5069883;28;20024;-68
2022/01/07 05:17:49;;;;;;;26.08;9.25;;;2.00;69.10;;;;;;5063797;28;20036;-68
2022/01/07 05:20:16;;;;;;;18.20;8.07;;;2.00;69.00;;;;;;5052773;28;20056;-67
2022/01/07 05:22:43;;;;;;;15.70;7.15;;;2.10;69.10;;;;;;5069833;28;20103;-68
2022/01/07 05:25:10;;;;;;;17.92;8.02;;;2.10;68.90;;;;;;5070101;28;20029;-67
2022/01/07 05:27:36;;;;;;;30.02;12.95;;;2.00;69.00;;;;;;5069567;28;20412;-68
2022/01/07 05:30:05;;;;;;;13.38;7.15;;;1.90;69.10;;;;;;5070918;28;20032;-68
2022/01/07 05:32:31;;;;;;;24.85;10.27;;;1.90;69.10;;;;;;5068962;28;20037;-67
2022/01/07 05:34:56;;;;;;;22.92;8.85;;;1.90;69.10;;;;;;5071580;28;20029;-68
2022/01/07 05:37:22;;;;;;;18.83;7.32;;;1.70;69.10;;;;;;5068937;28;20024;-68
2022/01/07 05:39:48;;;;;;;25.77;10.73;;;1.80;69.30;;;;;;5069967;28;20028;-68
2022/01/07 05:42:14;;;;;;;20.10;8.07;;;1.70;69.40;;;;;;5071037;28;20031;-66
2022/01/07 05:44:40;;;;;;;15.98;7.85;;;1.70;69.40;;;;;;5068437;28;20123;-70
2022/01/07 05:47:06;;;;;;;15.63;6.40;;;1.80;69.30;;;;;;5070826;28;20036;-68
2022/01/07 05:49:32;;;;;;;16.40;6.70;;;1.80;69.10;;;;;;5070260;28;20043;-69
2022/01/07 05:51:57;;;;;;;16.75;7.57;;;1.80;68.90;;;;;;5069562;28;20029;-69
2022/01/07 05:54:23;;;;;;;29.92;10.52;;;1.80;68.70;;;;;;5069300;28;20393;-69
2022/01/07 05:56:49;;;;;;;14.98;6.68;;;1.80;68.70;;;;;;5070418;28;20027;-68
2022/01/07 05:59:15;;;;;;;11.50;6.10;;;1.70;68.30;;;;;;5070409;28;20025;-69
2022/01/07 06:01:41;;;;;;;12.00;5.70;;;1.80;68.40;;;;;;5050669;28;20388;-69
2022/01/07 06:04:09;;;;;;;20.38;8.70;;;1.80;68.20;;;;;;5070442;28;20385;-69
2022/01/07 06:06:35;;;;;;;14.60;6.60;;;1.70;68.20;;;;;;5068670;28;20048;-68
2022/01/07 06:09:01;;;;;;;14.98;7.65;;;1.80;68.40;;;;;;5069936;28;20058;-69
2022/01/07 06:11:27;;;;;;;11.45;6.93;;;1.80;68.40;;;;;;5068870;28;20037;-68
2022/01/07 06:13:52;;;;;;;11.90;6.57;;;1.80;68.40;;;;;;5068213;28;20123;-64
2022/01/07 06:16:18;;;;;;;12.45;6.05;;;1.90;68.30;;;;;;5070708;28;20032;-63
2022/01/07 06:18:54;;;;;;;15.10;7.22;;;1.80;68.10;;;;;;5067848;28;20031;-63
2022/01/07 06:21:20;;;;;;;15.30;7.05;;;1.80;68.20;;;;;;5068013;28;20024;-63
2022/01/07 06:23:46;;;;;;;13.32;6.30;;;1.80;68.50;;;;;;5067123;28;20474;-63
2022/01/07 06:26:12;;;;;;;10.73;5.95;;;1.70;68.50;;;;;;5068768;28;20036;-63
2022/01/07 06:28:37;;;;;;;13.93;6.70;;;1.70;68.50;;;;;;5069554;28;20101;-63
2022/01/07 06:31:03;;;;;;;14.82;6.80;;;1.80;68.60;;;;;;5072087;28;20032;-63
2022/01/07 06:33:29;;;;;;;16.00;7.30;;;1.70;68.60;;;;;;5071407;28;20036;-63
2022/01/07 06:35:54;;;;;;;14.95;8.52;;;1.70;68.90;;;;;;5062221;28;20453;-63
2022/01/07 06:38:23;;;;;;;19.00;9.93;;;1.70;68.70;;;;;;5072830;28;20036;-63
2022/01/07 06:40:49;;;;;;;23.20;6.85;;;1.60;68.80;;;;;;5072875;28;20032;-63
2022/01/07 06:43:14;;;;;;;18.23;7.28;;;1.60;69.00;;;;;;5072345;28;20048;-63
2022/01/07 06:45:40;;;;;;;12.95;7.40;;;1.60;69.20;;;;;;5073026;28;20461;-62
2022/01/07 06:48:06;;;;;;;13.38;7.32;;;1.60;69.30;;;;;;5073427;28;20405;-63
2022/01/07 06:50:31;;;;;;;33.92;15.07;;;1.50;69.30;;;;;;5072799;28;20041;-63
2022/01/07 06:52:59;;;;;;;22.60;11.52;;;1.50;69.00;;;;;;5071760;28;20044;-62
2022/01/07 06:55:24;;;;;;;22.20;11.13;;;1.50;68.50;;;;;;5072917;28;20030;-62
2022/01/07 06:57:50;;;;;;;13.43;8.55;;;1.50;68.50;;;;;;5070237;28;20473;-63
2022/01/07 07:00:17;;;;;;;9.18;6.20;;;1.50;68.40;;;;;;5071469;28;20024;-66
2022/01/07 07:02:43;;;;;;;7.82;4.80;;;1.50;68.10;;;;;;5071401;28;20124;-66
2022/01/07 07:05:10;;;;;;;11.82;4.32;;;1.50;67.90;;;;;;5069710;28;20459;-65
2022/01/07 07:07:35;;;;;;;11.75;5.38;;;1.50;67.60;;;;;;5071009;28;20021;-65
2022/01/07 07:10:01;;;;;;;7.40;4.03;;;1.50;67.60;;;;;;5073026;28;20488;-66
2022/01/07 07:12:28;;;;;;;12.38;4.65;;;1.60;67.00;;;;;;5072228;28;20140;-67
2022/01/07 07:14:54;;;;;;;12.43;4.25;;;1.60;66.70;;;;;;5072314;28;20028;-65
2022/01/07 07:17:20;;;;;;;38.90;5.82;;;1.60;66.40;;;;;;5071845;28;20059;-66
2022/01/07 07:19:47;;;;;;;25.73;5.68;;;1.70;65.80;;;;;;5071695;28;20103;-66
2022/01/07 07:22:13;;;;;;;12.32;5.13;;;1.70;65.00;;;;;;5073116;28;20029;-66
2022/01/07 07:24:39;;;;;;;9.75;3.25;;;1.70;64.80;;;;;;5070915;28;20037;-65
2022/01/07 07:27:06;;;;;;;8.40;3.97;;;1.70;64.30;;;;;;5072745;28;20555;-66
2022/01/07 07:29:32;;;;;;;12.70;4.60;;;1.80;64.10;;;;;;5074051;28;20072;-68
2022/01/07 07:32:03;;;;;;;8.77;3.83;;;1.80;63.90;;;;;;5068665;28;20064;-66
2022/01/07 07:34:45;;;;;;;9.18;3.47;;;1.80;63.80;;;;;;5076338;28;20048;-66
2022/01/07 07:37:13;;;;;;;9.93;4.15;;;1.90;63.20;;;;;;5067514;28;20024;-66
2022/01/07 07:39:40;;;;;;;11.90;3.42;;;1.90;63.20;;;;;;5072070;28;20024;-65
2022/01/07 07:42:06;;;;;;;56.13;20.35;;;1.90;63.00;;;;;;5071990;28;20032;-66
2022/01/07 07:44:31;;;;;;;36.30;32.00;;;2.40;64.10;;;;;;5073439;28;20115;-68
2022/01/07 07:46:58;;;;;;;34.85;32.38;;;4.40;59.30;;;;;;5071789;28;20270;-66
2022/01/07 07:49:23;;;;;;;34.92;32.60;;;5.30;54.90;;;;;;5071227;28;20035;-65
2022/01/07 07:51:51;;;;;;;10.95;9.85;;;5.10;53.10;;;;;;5070092;28;20024;-68
2022/01/07 07:54:18;;;;;;;6.95;3.70;;;4.70;54.30;;;;;;5071396;28;20128;-66
2022/01/07 07:56:43;;;;;;;8.60;3.67;;;4.50;55.40;;;;;;5070858;28;20031;-65
2022/01/07 07:59:09;;;;;;;11.10;4.13;;;4.30;55.90;;;;;;5072422;28;20025;-68
2022/01/07 08:01:36;;;;;;;12.32;3.80;;;4.20;56.30;;;;;;5072004;28;20027;-66
2022/01/07 08:04:03;;;;;;;6.60;3.58;;;4.10;55.90;;;;;;5072451;28;20101;-66
2022/01/07 08:06:29;;;;;;;13.73;4.47;;;4.00;56.10;;;;;;5071813;28;20020;-68
2022/01/07 08:08:55;;;;;;;8.13;3.70;;;4.00;56.20;;;;;;5070815;28;20029;-67
2022/01/07 08:11:23;;;;;;;9.60;3.65;;;3.90;56.10;;;;;;5072588;28;20122;-68
2022/01/07 08:16:33;;;;;;;6.68;3.50;;;3.70;56.10;;;;;;5072073;28;20055;-69
2022/01/07 08:19:05;;;;;;;9.20;3.67;;;3.70;56.30;;;;;;5072030;28;20075;-68
2022/01/07 08:21:31;;;;;;;7.75;4.25;;;3.60;55.90;;;;;;5071915;28;20033;-63
2022/01/07 08:23:59;;;;;;;7.15;3.28;;;3.50;55.90;;;;;;5071538;28;20381;-65
2022/01/07 08:26:25;;;;;;;8.23;3.70;;;3.40;56.00;;;;;;5070746;28;20358;-66
2022/01/07 08:28:59;;;;;;;12.02;4.18;;;3.30;56.40;;;;;;5071517;28;20024;-64
2022/01/07 08:34:53;;;;;;;5.63;3.30;;;3.30;56.80;;;;;;5072362;28;20108;-65
2022/01/07 08:36:56;;;;;;;7.20;4.05;;;3.30;56.50;;;;;;5070056;28;20495;-65
2022/01/07 08:39:22;;;;;;;6.22;3.58;;;3.20;56.70;;;;;;5071332;28;20081;-65
2022/01/07 08:41:48;;;;;;;8.13;3.60;;;3.30;56.70;;;;;;5071897;28;20032;-63
2022/01/07 08:44:13;;;;;;;9.40;3.20;;;3.30;56.50;;;;;;5072004;28;20028;-66
2022/01/07 08:46:40;;;;;;;7.20;3.55;;;3.30;56.30;;;;;;5070267;28;20055;-65
2022/01/07 08:49:06;;;;;;;9.75;3.95;;;3.20;56.40;;;;;;5071971;28;20025;-66
2022/01/07 08:51:32;;;;;;;11.07;3.25;;;3.30;56.30;;;;;;5069717;28;20036;-65
2022/01/07 08:53:58;;;;;;;6.97;4.00;;;3.30;56.30;;;;;;5070137;28;20393;-65
2022/01/07 08:56:25;;;;;;;13.02;4.10;;;3.30;56.20;;;;;;5071142;28;20040;-66
2022/01/07 08:58:56;;;;;;;9.38;3.30;;;3.40;56.10;;;;;;5070666;28;20028;-65
2022/01/07 09:01:24;;;;;;;8.98;4.43;;;3.40;55.80;;;;;;5069593;28;20041;-64
2022/01/07 09:03:49;;;;;;;7.93;4.22;;;3.30;55.60;;;;;;5064970;28;20028;-65
2022/01/07 09:06:15;;;;;;;8.30;3.58;;;3.30;55.40;;;;;;5070271;28;20107;-65
2022/01/07 09:08:41;;;;;;;6.88;3.30;;;3.40;55.80;;;;;;5071759;28;20056;-66
2022/01/07 09:11:08;;;;;;;6.85;3.20;;;3.40;55.20;;;;;;5070609;28;20029;-68
2022/01/07 09:13:33;;;;;;;6.32;3.00;;;3.40;55.00;;;;;;5070916;28;20044;-65
2022/01/07 09:15:59;;;;;;;11.00;3.40;;;3.50;55.00;;;;;;5069122;28;20024;-65
2022/01/07 09:18:26;;;;;;;10.70;3.58;;;3.40;54.90;;;;;;5071438;28;20044;-64
2022/01/07 09:21:10;;;;;;;8.18;4.03;;;3.50;55.20;;;;;;5071196;28;20036;-64
2022/01/07 09:23:39;;;;;;;7.18;3.00;;;3.50;54.80;;;;;;5071428;28;20029;-65
2022/01/07 09:26:05;;;;;;;10.35;3.38;;;3.60;54.70;;;;;;5068898;28;20384;-66
2022/01/07 09:28:31;;;;;;;7.93;3.42;;;3.60;54.50;;;;;;5070740;28;20082;-64
2022/01/07 09:30:57;;;;;;;27.23;5.25;;;3.60;54.50;;;;;;5070326;28;20021;-67
2022/01/07 09:33:23;;;;;;;7.95;3.35;;;3.60;54.40;;;;;;5070515;28;20043;-66
2022/01/07 09:35:51;;;;;;;7.30;3.45;;;3.50;54.20;;;;;;5070936;28;20120;-64
2022/01/07 09:38:16;;;;;;;11.38;4.20;;;3.60;54.60;;;;;;5071304;28;20064;-66
2022/01/07 09:40:45;;;;;;;11.13;4.10;;;3.60;54.70;;;;;;5071016;28;20028;-67
2022/01/07 09:43:15;;;;;;;10.07;3.92;;;3.70;54.90;;;;;;5070710;28;20044;-66
2022/01/07 09:45:41;;;;;;;7.55;3.92;;;3.70;54.90;;;;;;5069693;28;20052;-66
2022/01/07 09:48:08;;;;;;;8.30;3.35;;;3.80;54.90;;;;;;5071316;28;20496;-66
2022/01/07 09:53:20;;;;;;;9.30;4.20;;;3.70;54.10;;;;;;5071377;28;20067;-68
2022/01/07 09:55:46;;;;;;;8.70;4.13;;;3.70;54.40;;;;;;5070812;28;20056;-63
2022/01/07 09:58:15;;;;;;;8.00;3.75;;;3.60;54.40;;;;;;5069652;28;20068;-66
2022/01/07 10:00:44;;;;;;;9.57;3.75;;;3.70;54.60;;;;;;5070896;28;20025;-68
2022/01/07 10:03:14;;;;;;;9.02;3.80;;;3.80;54.40;;;;;;5070218;28;20054;-67
2022/01/07 10:05:45;;;;;;;8.85;3.55;;;3.80;54.20;;;;;;5074645;28;20021;-67
2022/01/07 10:08:26;;;;;;;7.40;3.83;;;3.90;54.20;;;;;;5073172;28;20049;-67
2022/01/07 10:11:18;;;;;;;7.03;3.80;;;4.00;54.50;;;;;;5073753;28;20044;-65
2022/01/07 10:13:46;;;;;;;8.15;3.70;;;4.00;54.40;;;;;;5072487;28;20051;-65
2022/01/07 10:16:21;;;;;;;7.95;3.58;;;4.10;54.50;;;;;;5074349;28;20112;-65
2022/01/07 10:18:48;;;;;;;26.75;8.40;;;4.20;54.30;;;;;;5073102;28;20067;-64
2022/01/07 10:21:18;;;;;;;9.77;4.68;;;4.30;54.30;;;;;;5074165;28;20119;-63
2022/01/07 10:23:45;;;;;;;10.95;3.90;;;4.40;55.00;;;;;;5054406;28;20037;-65
2022/01/07 10:26:16;;;;;;;8.50;4.30;;;4.50;54.40;;;;;;5070355;28;20111;-66
2022/01/07 10:28:43;;;;;;;7.47;3.95;;;4.60;54.40;;;;;;5073992;28;20108;-65
2022/01/07 10:31:10;;;;;;;8.63;3.85;;;4.80;53.60;;;;;;5074160;28;20035;-65
2022/01/07 10:33:42;;;;;;;7.50;3.30;;;4.80;53.10;;;;;;5074648;28;20029;-65
2022/01/07 10:36:07;;;;;;;6.38;3.33;;;4.80;53.10;;;;;;5057256;28;20021;-65
2022/01/07 10:38:45;;;;;;;7.47;3.60;;;4.90;52.40;;;;;;5072316;28;20035;-65
2022/01/07 10:41:12;;;;;;;9.10;3.25;;;5.20;51.70;;;;;;5073382;28;20104;-64
2022/01/07 10:43:38;;;;;;;7.72;3.05;;;5.80;50.40;;;;;;5074473;28;20093;-65
2022/01/07 10:46:25;;;;;;;9.05;3.90;;;6.20;48.50;;;;;;5073254;28;20024;-66
2022/01/07 10:48:55;;;;;;;8.00;4.00;;;6.40;48.80;;;;;;5072962;28;20025;-65
2022/01/07 10:51:23;;;;;;;5.75;2.63;;;7.70;46.40;;;;;;5072480;28;20035;-65
2022/01/07 10:53:53;;;;;;;7.82;2.55;;;7.90;43.20;;;;;;5071487;28;20067;-65
2022/01/07 10:56:41;;;;;;;6.13;2.88;;;7.60;43.80;;;;;;5073295;28;20441;-67
2022/01/07 10:59:11;;;;;;;7.95;3.53;;;7.10;43.70;;;;;;5073462;28;20032;-64
2022/01/07 11:01:42;;;;;;;12.50;3.50;;;6.70;45.00;;;;;;5073433;28;20028;-66
2022/01/07 11:04:13;;;;;;;6.72;3.10;;;6.40;45.80;;;;;;5068622;28;20031;-64
2022/01/07 11:06:41;;;;;;;7.75;2.67;;;6.20;46.20;;;;;;5073454;28;20020;-65
2022/01/07 11:09:13;;;;;;;6.30;3.10;;;5.90;47.30;;;;;;5072307;28;20091;-64
2022/01/07 11:11:54;;;;;;;13.20;6.32;;;5.90;48.10;;;;;;5073454;28;20075;-66
2022/01/07 11:14:24;;;;;;;9.45;3.97;;;5.90;48.30;;;;;;5073468;28;20041;-65
2022/01/07 11:16:53;;;;;;;9.15;3.40;;;5.90;48.40;;;;;;5071571;28;20128;-65
2022/01/07 11:19:23;;;;;;;7.30;3.45;;;6.00;49.10;;;;;;5070077;28;20025;-66
2022/01/07 11:21:52;;;;;;;8.75;2.97;;;6.30;48.40;;;;;;5073004;28;20111;-65
2022/01/07 11:24:42;;;;;;;6.82;3.20;;;6.50;46.90;;;;;;5073468;28;20360;-65
2022/01/07 11:27:16;;;;;;;7.25;3.13;;;6.20;47.50;;;;;;5072257;28;20112;-66
2022/01/07 11:30:04;;;;;;;6.95;3.03;;;6.00;48.50;;;;;;5071704;28;20028;-69
2022/01/07 11:32:44;;;;;;;8.38;4.00;;;5.90;49.90;;;;;;5072462;28;20029;-68
2022/01/07 11:35:23;;;;;;;5.88;2.88;;;6.30;49.70;;;;;;5072983;28;20036;-70
2022/01/07 11:37:57;;;;;;;7.53;2.95;;;7.10;47.50;;;;;;5072150;28;20447;-70
2022/01/07 11:40:47;;;;;;;6.07;2.97;;;7.10;46.90;;;;;;5073236;28;20353;-70
2022/01/07 11:43:13;;;;;;;8.77;3.08;;;6.90;46.20;;;;;;5064086;28;20029;-70
2022/01/07 11:45:41;;;;;;;19.45;11.15;;;6.60;47.20;;;;;;5072534;28;20095;-69
2022/01/07 11:48:12;;;;;;;6.53;2.88;;;6.50;47.30;;;;;;5070518;28;20045;-70
2022/01/07 11:50:56;;;;;;;6.78;3.15;;;6.30;46.90;;;;;;5072435;28;20020;-70
2022/01/07 11:53:41;;;;;;;6.40;2.90;;;6.20;47.40;;;;;;5072707;28;20153;-70
2022/01/07 11:56:11;;;;;;;10.75;4.30;;;6.00;47.20;;;;;;5071971;28;20052;-71
2022/01/07 11:58:58;;;;;;;9.40;3.25;;;6.00;47.80;;;;;;5073061;28;20029;-70
2022/01/07 12:01:40;;;;;;;8.43;3.38;;;5.90;47.00;;;;;;5071764;28;20031;-70
2022/01/07 12:04:15;;;;;;;9.15;3.40;;;5.80;47.40;;;;;;5072003;28;20032;-71
2022/01/07 12:06:41;;;;;;;7.07;3.92;;;5.80;47.40;;;;;;5072698;28;20106;-69
2022/01/07 12:09:12;;;;;;;6.93;3.42;;;5.60;47.10;;;;;;5071411;28;20533;-69
2022/01/07 12:11:58;;;;;;;8.45;3.30;;;5.60;47.50;;;;;;5072485;28;20037;-69
2022/01/07 12:14:42;;;;;;;8.93;3.20;;;5.50;47.70;;;;;;5072382;28;20032;-67
2022/01/07 12:17:14;;;;;;;8.77;3.50;;;5.50;48.00;;;;;;5070896;28;20025;-67
2022/01/07 12:19:39;;;;;;;7.30;3.53;;;5.50;48.20;;;;;;5072023;28;20082;-68
2022/01/07 12:22:11;;;;;;;6.43;3.80;;;5.60;48.50;;;;;;5071472;28;20021;-67
2022/01/07 12:24:40;;;;;;;8.80;4.15;;;5.60;48.50;;;;;;5071996;28;20053;-68
2022/01/07 12:27:07;;;;;;;11.52;4.30;;;5.50;48.60;;;;;;5069329;28;20040;-69
2022/01/07 12:29:35;;;;;;;8.80;4.07;;;5.50;49.10;;;;;;5070058;28;20031;-72
2022/01/07 12:32:03;;;;;;;8.57;4.30;;;5.40;49.30;;;;;;5070459;28;20044;-70
2022/01/07 12:34:34;;;;;;;8.05;3.90;;;5.30;49.60;;;;;;5071806;28;20104;-75
2022/01/07 12:37:01;;;;;;;9.45;4.28;;;5.40;49.80;;;;;;5066587;28;20029;-72
2022/01/07 12:39:32;;;;;;;5.65;3.42;;;5.40;49.60;;;;;;5071738;28;20024;-74
2022/01/07 12:41:59;;;;;;;8.68;3.78;;;5.50;49.80;;;;;;5071716;28;20378;-69
2022/01/07 12:44:32;;;;;;;6.50;3.38;;;5.50;49.70;;;;;;5070708;28;20036;-74
2022/01/07 12:46:59;;;;;;;8.25;3.70;;;5.50;49.00;;;;;;5071854;28;20020;-74
2022/01/07 12:49:41;;;;;;;7.35;3.50;;;5.40;49.20;;;;;;5071507;28;20478;-73
2022/01/07 12:52:16;;;;;;;5.70;2.95;;;5.30;49.50;;;;;;5071488;28;20127;-73
2022/01/07 12:55:00;;;;;;;8.98;4.03;;;5.30;49.40;;;;;;5071749;28;20028;-74
2022/01/07 12:57:33;;;;;;;;;;;5.30;49.60;;;;;;5071804;28;20028;-75
2022/01/07 13:00:06;;;;;;;6.10;3.13;;;5.20;48.90;;;;;;5070041;28;19910;-74
2022/01/07 13:02:33;;;;;;;8.35;3.50;;;5.20;49.50;;;;;;5070341;28;20574;-73
2022/01/07 13:05:16;;;;;;;10.05;3.58;;;5.30;49.10;;;;;;5070236;28;20415;-74